Becker, MN

12:22 PM CST on December 25, 2014 (GMT -0600)
Saint Cloud Regional | Change Station
CLOSE
Current Station
Airport
Location: St. Cloud,
Elevation: 1024 ft
Nearby Weather Stations

Elev 1024 ft 45.55 °N, 94.06 °W | Updated 29 minutes ago

Overcast
Overcast
34 °F
Feels Like 28 °F
N
7
Wind Variable Wind from SW

Today
High -- | Low -- °F
--% Chance of Precip.
Yesterday
High -- | Low -- °F
Precip. -- in
7:53 AM 4:37 PM
Waxing Crescent, 18% visible
Pressure 29.78 in
Visibility 9.0 miles
Clouds Overcast 1200 ft
Windchill 28 °F
Dew Point 28 °F
Humidity 79%
Rainfall 0.00 in
Snow Depth Not available.
UV 0 out of 12
Pollen .10 out of 12
Air Quality Not available.
Flu Activity Not available.
METAR KSTC 251753Z 23006KT 9SM OVC012 01/M02 A2972 RMK AO2 SLP083 60000 T00111022 10011 20000 51019

More Conditions Fewer Conditions

Pressure 29.78 in
Visibility 9.0 miles
Clouds Overcast 1200 ft
Windchill 28 °F
Dew Point 28 °F
Humidity 79%
Rainfall 0.00 in
Snow Depth Not available.
UV 0 out of 12
Pollen .10 out of 12
Air Quality Not available.
Flu Activity Not available.
METAR KSTC 251753Z 23006KT 9SM OVC012 01/M02 A2972 RMK AO2 SLP083 60000 T00111022 10011 20000 51019

More Conditions Fewer Conditions

Nowcast | as of 11:36 am CST on December 25, 2014

Light snow or flurries will continue to fall across much of west central Minnesota...prior to 2 PM. Most of the activity will be observed north of a line...from Comfrey to Minneapolis...to White Bear Lake...and south of a line from Benson to Princeton. Snowfall amounts prior to 2 PM...will vary from trace amounts to near one half of an inch...especially west of a line...from Olivia to Litchfield. Motorists should curb their speed and allow a little extra time to reach their destinations.

×

10-Day Weather Forecast

Almanac

Astronomy

Dec. 25, 2014 Rise Set
Actual Time
Civil Twilight
Nautical Twilight
Astronomical Twilight
Moon
Length of Visible Light
Length of Day
Tomorrow will be .
, % of the Moon is Illuminated

Today's Extremes

State Highs State Lows

Community

WunderPhotos

Upload Photos

1,780,353 photos uploaded!

WunderBlogs® & News

Nearby

Air Quality

  Air Quality AQ Index Pollutant
Not available.

Snow Depth

Station Depth Elevation

Earthquake Activity

City Distance Mag. Time & Date
Minimum magnitude displayed is 2.5.

Coastal Water Temperatures

Place Temperature

Nearby Weather Stations